sensor_id;sensor_type;location;lat;lon;timestamp;pressure;altitude;pressure_sealevel;temperature;humidity
6349;BME280;3207;42.648;23.406;2023-02-28T00:00:17;100957.81;;;3.46;nan
6349;BME280;3207;42.648;23.406;2023-02-28T00:02:44;100947.06;;;3.30;nan
6349;BME280;3207;42.648;23.406;2023-02-28T00:05:13;100968.31;;;3.40;nan
6349;BME280;3207;42.648;23.406;2023-02-28T00:07:42;100934.34;;;3.22;nan
6349;BME280;3207;42.648;23.406;2023-02-28T00:10:11;100967.47;;;3.39;nan
6349;BME280;3207;42.648;23.406;2023-02-28T00:12:38;100970.00;;;3.41;nan
6349;BME280;3207;42.648;23.406;2023-02-28T00:15:06;100967.53;;;3.38;nan
6349;BME280;3207;42.648;23.406;2023-02-28T00:17:34;100971.84;;;3.37;nan
6349;BME280;3207;42.648;23.406;2023-02-28T00:20:01;100973.59;;;3.37;nan
6349;BME280;3207;42.648;23.406;2023-02-28T00:22:38;100971.03;;;3.35;nan
6349;BME280;3207;42.648;23.406;2023-02-28T00:25:08;100979.66;;;3.36;nan
6349;BME280;3207;42.648;23.406;2023-02-28T00:27:35;100968.59;;;3.29;nan
6349;BME280;3207;42.648;23.406;2023-02-28T00:30:04;100980.50;;;3.36;nan
6349;BME280;3207;42.648;23.406;2023-02-28T00:32:31;100971.94;;;3.34;nan
6349;BME280;3207;42.648;23.406;2023-02-28T00:34:58;100979.75;;;3.31;nan
6349;BME280;3207;42.648;23.406;2023-02-28T00:37:25;100968.69;;;3.27;nan
6349;BME280;3207;42.648;23.406;2023-02-28T00:39:52;100979.94;;;3.25;nan
6349;BME280;3207;42.648;23.406;2023-02-28T00:42:20;100981.50;;;3.30;nan
6349;BME280;3207;42.648;23.406;2023-02-28T00:44:48;100980.56;;;3.33;nan
6349;BME280;3207;42.648;23.406;2023-02-28T00:47:15;100970.44;;;3.25;nan
6349;BME280;3207;42.648;23.406;2023-02-28T00:49:42;100967.66;;;3.33;nan
6349;BME280;3207;42.648;23.406;2023-02-28T00:52:09;100968.56;;;3.30;nan
6349;BME280;3207;42.648;23.406;2023-02-28T00:54:35;100968.50;;;3.34;nan
6349;BME280;3207;42.648;23.406;2023-02-28T00:57:02;100966.88;;;3.29;nan
6349;BME280;3207;42.648;23.406;2023-02-28T00:59:31;100968.53;;;3.32;nan
6349;BME280;3207;42.648;23.406;2023-02-28T01:01:58;100965.16;;;3.30;nan
6349;BME280;3207;42.648;23.406;2023-02-28T01:04:24;100976.13;;;3.38;nan
6349;BME280;3207;42.648;23.406;2023-02-28T01:06:51;100975.28;;;3.38;nan
6349;BME280;3207;42.648;23.406;2023-02-28T01:09:18;100971.00;;;3.37;nan
6349;BME280;3207;42.648;23.406;2023-02-28T01:11:45;100966.47;;;3.45;nan
6349;BME280;3207;42.648;23.406;2023-02-28T01:14:13;100961.47;;;3.39;nan
6349;BME280;3207;42.648;23.406;2023-02-28T01:16:42;100961.38;;;3.42;nan
6349;BME280;3207;42.648;23.406;2023-02-28T01:19:09;100965.31;;;3.24;nan
6349;BME280;3207;42.648;23.406;2023-02-28T01:21:36;100960.97;;;3.26;nan
6349;BME280;3207;42.648;23.406;2023-02-28T01:24:03;100961.56;;;3.36;nan
6349;BME280;3207;42.648;23.406;2023-02-28T01:26:31;100957.50;;;3.27;nan
6349;BME280;3207;42.648;23.406;2023-02-28T01:28:58;100941.22;;;3.23;nan
6349;BME280;3207;42.648;23.406;2023-02-28T01:31:25;100943.50;;;3.34;nan
6349;BME280;3207;42.648;23.406;2023-02-28T01:33:53;100945.06;;;3.40;nan
6349;BME280;3207;42.648;23.406;2023-02-28T01:36:23;100935.84;;;3.31;nan
6349;BME280;3207;42.648;23.406;2023-02-28T01:38:50;100945.22;;;3.35;nan
6349;BME280;3207;42.648;23.406;2023-02-28T01:41:18;100938.59;;;3.25;nan
6349;BME280;3207;42.648;23.406;2023-02-28T01:43:59;100949.00;;;3.22;nan
6349;BME280;3207;42.648;23.406;2023-02-28T01:46:29;100896.41;;;2.93;nan
6349;BME280;3207;42.648;23.406;2023-02-28T01:49:02;100938.72;;;3.20;nan
6349;BME280;3207;42.648;23.406;2023-02-28T01:51:35;100940.75;;;3.40;nan
6349;BME280;3207;42.648;23.406;2023-02-28T01:54:07;100941.28;;;3.51;nan
6349;BME280;3207;42.648;23.406;2023-02-28T01:56:41;100940.13;;;3.32;nan
6349;BME280;3207;42.648;23.406;2023-02-28T01:59:12;100947.94;;;3.29;nan
6349;BME280;3207;42.648;23.406;2023-02-28T02:01:40;100939.63;;;3.18;nan
6349;BME280;3207;42.648;23.406;2023-02-28T02:04:08;100939.25;;;3.31;nan
6349;BME280;3207;42.648;23.406;2023-02-28T02:06:38;100943.31;;;3.40;nan
6349;BME280;3207;42.648;23.406;2023-02-28T02:09:06;100947.81;;;3.34;nan
6349;BME280;3207;42.648;23.406;2023-02-28T02:11:34;100947.06;;;3.30;nan
6349;BME280;3207;42.648;23.406;2023-02-28T02:17:04;100946.09;;;3.34;nan
6349;BME280;3207;42.648;23.406;2023-02-28T02:20:01;100959.09;;;3.31;nan
6349;BME280;3207;42.648;23.406;2023-02-28T02:22:45;100945.22;;;3.35;nan
6349;BME280;3207;42.648;23.406;2023-02-28T02:25:24;100946.22;;;3.29;nan
6349;BME280;3207;42.648;23.406;2023-02-28T02:28:11;100957.50;;;3.27;nan
6349;BME280;3207;42.648;23.406;2023-02-28T02:31:18;100962.44;;;3.35;nan
6349;BME280;3207;42.648;23.406;2023-02-28T02:34:15;100959.88;;;3.35;nan
6349;BME280;3207;42.648;23.406;2023-02-28T02:36:50;100972.91;;;3.30;nan
6349;BME280;3207;42.648;23.406;2023-02-28T02:39:23;100964.41;;;3.26;nan
6349;BME280;3207;42.648;23.406;2023-02-28T02:41:56;100964.94;;;3.38;nan
6349;BME280;3207;42.648;23.406;2023-02-28T02:44:28;100971.13;;;3.32;nan
6349;BME280;3207;42.648;23.406;2023-02-28T02:47:01;100971.41;;;3.21;nan
6349;BME280;3207;42.648;23.406;2023-02-28T02:49:32;100967.72;;;3.30;nan
6349;BME280;3207;42.648;23.406;2023-02-28T02:52:03;100970.41;;;3.27;nan
6349;BME280;3207;42.648;23.406;2023-02-28T02:54:33;100973.00;;;3.27;nan
6349;BME280;3207;42.648;23.406;2023-02-28T02:57:04;100974.88;;;3.20;nan
6349;BME280;3207;42.648;23.406;2023-02-28T02:59:35;100974.69;;;3.28;nan
6349;BME280;3207;42.648;23.406;2023-02-28T03:02:04;100971.19;;;3.29;nan
6349;BME280;3207;42.648;23.406;2023-02-28T03:04:38;100971.34;;;3.24;nan
6349;BME280;3207;42.648;23.406;2023-02-28T03:07:06;100970.78;;;3.13;nan
6349;BME280;3207;42.648;23.406;2023-02-28T03:09:34;100971.44;;;3.20;nan
6349;BME280;3207;42.648;23.406;2023-02-28T03:12:02;100974.28;;;3.11;nan
6349;BME280;3207;42.648;23.406;2023-02-28T03:14:44;100962.50;;;3.01;nan
6349;BME280;3207;42.648;23.406;2023-02-28T03:17:30;100963.97;;;3.09;nan
6349;BME280;3207;42.648;23.406;2023-02-28T03:20:07;100973.66;;;3.03;nan
6349;BME280;3207;42.648;23.406;2023-02-28T03:22:45;100962.16;;;3.14;nan
6349;BME280;3207;42.648;23.406;2023-02-28T03:25:27;100963.91;;;3.12;nan
6349;BME280;3207;42.648;23.406;2023-02-28T03:28:00;100963.34;;;3.01;nan
6349;BME280;3207;42.648;23.406;2023-02-28T03:30:35;100965.00;;;3.04;nan
6349;BME280;3207;42.648;23.406;2023-02-28T03:33:06;100945.19;;;3.04;nan
6349;BME280;3207;42.648;23.406;2023-02-28T03:35:38;100963.13;;;3.09;nan
6349;BME280;3207;42.648;23.406;2023-02-28T03:38:09;100960.63;;;3.07;nan
6349;BME280;3207;42.648;23.406;2023-02-28T03:40:42;100958.81;;;3.09;nan
6349;BME280;3207;42.648;23.406;2023-02-28T03:43:15;100963.13;;;3.09;nan
6349;BME280;3207;42.648;23.406;2023-02-28T03:45:45;100958.34;;;2.95;nan
6349;BME280;3207;42.648;23.406;2023-02-28T03:48:17;100953.19;;;2.95;nan
6349;BME280;3207;42.648;23.406;2023-02-28T03:50:49;100952.91;;;3.06;nan
6349;BME280;3207;42.648;23.406;2023-02-28T03:53:21;100960.97;;;2.93;nan
6349;BME280;3207;42.648;23.406;2023-02-28T03:55:53;100963.31;;;3.03;nan
6349;BME280;3207;42.648;23.406;2023-02-28T03:58:27;100961.69;;;2.99;nan
6349;BME280;3207;42.648;23.406;2023-02-28T04:01:00;100952.75;;;2.78;nan
6349;BME280;3207;42.648;23.406;2023-02-28T04:03:34;100969.03;;;2.81;nan
6349;BME280;3207;42.648;23.406;2023-02-28T04:06:04;100962.69;;;2.94;nan
6349;BME280;3207;42.648;23.406;2023-02-28T04:08:32;100966.72;;;3.05;nan
6349;BME280;3207;42.648;23.406;2023-02-28T04:11:03;100964.84;;;3.10;nan
6349;BME280;3207;42.648;23.406;2023-02-28T04:13:31;100970.22;;;3.02;nan
6349;BME280;3207;42.648;23.406;2023-02-28T04:15:58;100980.44;;;3.07;nan
6349;BME280;3207;42.648;23.406;2023-02-28T04:18:25;100979.97;;;2.91;nan
6349;BME280;3207;42.648;23.406;2023-02-28T04:20:52;100979.91;;;2.94;nan
6349;BME280;3207;42.648;23.406;2023-02-28T04:23:20;100984.69;;;3.08;nan
6349;BME280;3207;42.648;23.406;2023-02-28T04:25:47;100984.66;;;3.09;nan
6349;BME280;3207;42.648;23.406;2023-02-28T04:28:14;100994.88;;;3.14;nan
6349;BME280;3207;42.648;23.406;2023-02-28T04:30:41;100990.03;;;3.02;nan
6349;BME280;3207;42.648;23.406;2023-02-28T04:33:08;100987.13;;;3.14;nan
6349;BME280;3207;42.648;23.406;2023-02-28T04:35:35;100991.75;;;3.01;nan
6349;BME280;3207;42.648;23.406;2023-02-28T04:38:02;100989.69;;;3.15;nan
6349;BME280;3207;42.648;23.406;2023-02-28T04:40:30;100999.28;;;3.09;nan
6349;BME280;3207;42.648;23.406;2023-02-28T04:42:57;100993.84;;;3.19;nan
6349;BME280;3207;42.648;23.406;2023-02-28T04:45:23;101002.34;;;3.24;nan
6349;BME280;3207;42.648;23.406;2023-02-28T04:47:50;101001.78;;;3.13;nan
6349;BME280;3207;42.648;23.406;2023-02-28T04:50:19;101000.03;;;3.14;nan
6349;BME280;3207;42.648;23.406;2023-02-28T04:52:45;100948.47;;;2.77;nan
6349;BME280;3207;42.648;23.406;2023-02-28T04:55:12;101004.31;;;3.15;nan
6349;BME280;3207;42.648;23.406;2023-02-28T04:57:40;101006.09;;;3.13;nan
6349;BME280;3207;42.648;23.406;2023-02-28T05:00:09;100999.22;;;3.12;nan
6349;BME280;3207;42.648;23.406;2023-02-28T05:02:37;101000.41;;;2.99;nan
6349;BME280;3207;42.648;23.406;2023-02-28T05:05:04;100999.38;;;3.07;nan
6349;BME280;3207;42.648;23.406;2023-02-28T05:07:30;100997.69;;;3.05;nan
6349;BME280;3207;42.648;23.406;2023-02-28T05:09:57;101001.31;;;2.98;nan
6349;BME280;3207;42.648;23.406;2023-02-28T05:12:24;100997.59;;;3.08;nan
6349;BME280;3207;42.648;23.406;2023-02-28T05:14:52;100997.84;;;2.99;nan
6349;BME280;3207;42.648;23.406;2023-02-28T05:17:19;100990.91;;;3.01;nan
6349;BME280;3207;42.648;23.406;2023-02-28T05:19:46;100994.63;;;2.90;nan
6349;BME280;3207;42.648;23.406;2023-02-28T05:22:14;100993.34;;;3.07;nan
6349;BME280;3207;42.648;23.406;2023-02-28T05:24:42;100993.72;;;2.91;nan
6349;BME280;3207;42.648;23.406;2023-02-28T05:27:09;100993.72;;;2.91;nan
6349;BME280;3207;42.648;23.406;2023-02-28T05:29:36;100996.34;;;2.90;nan
6349;BME280;3207;42.648;23.406;2023-02-28T05:32:09;100998.94;;;2.90;nan
6349;BME280;3207;42.648;23.406;2023-02-28T05:34:37;100992.00;;;2.92;nan
6349;BME280;3207;42.648;23.406;2023-02-28T05:37:04;101003.19;;;2.92;nan
6349;BME280;3207;42.648;23.406;2023-02-28T05:39:31;101012.38;;;3.03;nan
6349;BME280;3207;42.648;23.406;2023-02-28T05:41:58;101000.38;;;3.00;nan
6349;BME280;3207;42.648;23.406;2023-02-28T05:44:25;100995.63;;;2.85;nan
6349;BME280;3207;42.648;23.406;2023-02-28T05:46:52;101006.53;;;2.96;nan
6349;BME280;3207;42.648;23.406;2023-02-28T05:49:20;101020.69;;;3.14;nan
6349;BME280;3207;42.648;23.406;2023-02-28T05:51:47;101011.28;;;3.11;nan
6349;BME280;3207;42.648;23.406;2023-02-28T05:54:13;101028.59;;;3.08;nan
6349;BME280;3207;42.648;23.406;2023-02-28T05:56:40;101027.63;;;3.12;nan
6349;BME280;3207;42.648;23.406;2023-02-28T05:59:09;101010.38;;;3.14;nan
6349;BME280;3207;42.648;23.406;2023-02-28T06:01:38;101014.78;;;3.09;nan
6349;BME280;3207;42.648;23.406;2023-02-28T06:04:07;101023.22;;;3.17;nan
6349;BME280;3207;42.648;23.406;2023-02-28T06:06:35;101024.97;;;3.15;nan
6349;BME280;3207;42.648;23.406;2023-02-28T06:09:02;101037.88;;;3.16;nan
6349;BME280;3207;42.648;23.406;2023-02-28T06:11:30;101037.97;;;3.12;nan
6349;BME280;3207;42.648;23.406;2023-02-28T06:13:58;101045.88;;;3.06;nan
6349;BME280;3207;42.648;23.406;2023-02-28T06:16:26;101045.09;;;3.02;nan
6349;BME280;3207;42.648;23.406;2023-02-28T06:18:54;101044.03;;;3.11;nan
6349;BME280;3207;42.648;23.406;2023-02-28T06:21:22;101044.78;;;3.16;nan
6349;BME280;3207;42.648;23.406;2023-02-28T06:23:50;101054.88;;;3.25;nan
6349;BME280;3207;42.648;23.406;2023-02-28T06:26:17;101052.28;;;3.25;nan
6349;BME280;3207;42.648;23.406;2023-02-28T06:28:44;101061.63;;;3.29;nan
6349;BME280;3207;42.648;23.406;2023-02-28T06:31:13;101061.69;;;3.27;nan
6349;BME280;3207;42.648;23.406;2023-02-28T06:33:41;101051.97;;;3.37;nan
6349;BME280;3207;42.648;23.406;2023-02-28T06:36:09;101059.63;;;3.40;nan
6349;BME280;3207;42.648;23.406;2023-02-28T06:38:37;101048.72;;;3.29;nan
6349;BME280;3207;42.648;23.406;2023-02-28T06:41:05;101061.59;;;3.30;nan
6349;BME280;3207;42.648;23.406;2023-02-28T06:43:35;101068.38;;;3.35;nan
6349;BME280;3207;42.648;23.406;2023-02-28T06:46:05;101069.09;;;3.40;nan
6349;BME280;3207;42.648;23.406;2023-02-28T06:48:33;101069.38;;;3.29;nan
6349;BME280;3207;42.648;23.406;2023-02-28T06:51:04;101084.81;;;3.32;nan
6349;BME280;3207;42.648;23.406;2023-02-28T06:53:31;101079.56;;;3.35;nan
6349;BME280;3207;42.648;23.406;2023-02-28T06:55:58;101080.69;;;3.25;nan
6349;BME280;3207;42.648;23.406;2023-02-28T06:58:27;101088.28;;;3.31;nan
6349;BME280;3207;42.648;23.406;2023-02-28T07:00:53;101082.09;;;3.38;nan
6349;BME280;3207;42.648;23.406;2023-02-28T07:03:21;101079.41;;;3.41;nan
6349;BME280;3207;42.648;23.406;2023-02-28T07:05:48;101090.88;;;3.31;nan
6349;BME280;3207;42.648;23.406;2023-02-28T07:08:16;101087.56;;;3.26;nan
6349;BME280;3207;42.648;23.406;2023-02-28T07:10:43;101024.63;;;2.96;nan
6349;BME280;3207;42.648;23.406;2023-02-28T07:13:10;101099.53;;;3.28;nan
6349;BME280;3207;42.648;23.406;2023-02-28T07:15:38;101094.56;;;3.21;nan
6349;BME280;3207;42.648;23.406;2023-02-28T07:18:05;101089.16;;;3.30;nan
6349;BME280;3207;42.648;23.406;2023-02-28T07:20:32;101082.88;;;3.40;nan
6349;BME280;3207;42.648;23.406;2023-02-28T07:22:59;101084.09;;;3.59;nan
6349;BME280;3207;42.648;23.406;2023-02-28T07:25:27;101070.78;;;3.41;nan
6349;BME280;3207;42.648;23.406;2023-02-28T07:27:54;101103.16;;;3.55;nan
6349;BME280;3207;42.648;23.406;2023-02-28T07:30:21;101104.69;;;3.62;nan
6349;BME280;3207;42.648;23.406;2023-02-28T07:32:49;101083.34;;;3.56;nan
6349;BME280;3207;42.648;23.406;2023-02-28T07:35:17;101102.91;;;3.64;nan
6349;BME280;3207;42.648;23.406;2023-02-28T07:37:44;101093.88;;;3.81;nan
6349;BME280;3207;42.648;23.406;2023-02-28T07:40:13;101105.06;;;3.81;nan
6349;BME280;3207;42.648;23.406;2023-02-28T07:42:40;101103.44;;;3.77;nan
6349;BME280;3207;42.648;23.406;2023-02-28T07:45:08;101083.69;;;3.75;nan
6349;BME280;3207;42.648;23.406;2023-02-28T07:47:37;101095.53;;;3.82;nan
6349;BME280;3207;42.648;23.406;2023-02-28T07:50:07;101100.63;;;3.85;nan
6349;BME280;3207;42.648;23.406;2023-02-28T07:52:34;101100.72;;;3.82;nan
6349;BME280;3207;42.648;23.406;2023-02-28T07:55:01;101110.16;;;3.83;nan
6349;BME280;3207;42.648;23.406;2023-02-28T07:57:28;101113.22;;;3.97;nan
6349;BME280;3207;42.648;23.406;2023-02-28T07:59:55;101108.94;;;3.96;nan
6349;BME280;3207;42.648;23.406;2023-02-28T08:02:21;101116.75;;;3.94;nan
6349;BME280;3207;42.648;23.406;2023-02-28T08:04:48;101099.28;;;4.02;nan
6349;BME280;3207;42.648;23.406;2023-02-28T08:07:18;101108.78;;;4.02;nan
6349;BME280;3207;42.648;23.406;2023-02-28T08:09:45;101115.28;;;4.15;nan
6349;BME280;3207;42.648;23.406;2023-02-28T08:12:12;101121.13;;;4.23;nan
6349;BME280;3207;42.648;23.406;2023-02-28T08:14:39;101114.25;;;4.22;nan
6349;BME280;3207;42.648;23.406;2023-02-28T08:17:06;101116.72;;;4.25;nan
6349;BME280;3207;42.648;23.406;2023-02-28T08:19:33;101119.88;;;4.05;nan
6349;BME280;3207;42.648;23.406;2023-02-28T08:22:00;101123.94;;;4.14;nan
6349;BME280;3207;42.648;23.406;2023-02-28T08:24:28;101115.75;;;4.29;nan
6349;BME280;3207;42.648;23.406;2023-02-28T08:26:55;101116.94;;;4.47;nan
6349;BME280;3207;42.648;23.406;2023-02-28T08:29:23;101122.00;;;4.52;nan
6349;BME280;3207;42.648;23.406;2023-02-28T08:31:49;101117.72;;;4.51;nan
6349;BME280;3207;42.648;23.406;2023-02-28T08:34:16;101116.53;;;4.61;nan
6349;BME280;3207;42.648;23.406;2023-02-28T08:36:43;101119.13;;;4.61;nan
6349;BME280;3207;42.648;23.406;2023-02-28T08:39:11;101120.84;;;4.62;nan
6349;BME280;3207;42.648;23.406;2023-02-28T08:41:39;101119.56;;;4.75;nan
6349;BME280;3207;42.648;23.406;2023-02-28T08:44:06;101116.78;;;4.81;nan
6349;BME280;3207;42.648;23.406;2023-02-28T08:46:33;101118.59;;;5.05;nan
6349;BME280;3207;42.648;23.406;2023-02-28T08:49:00;101119.50;;;5.04;nan
6349;BME280;3207;42.648;23.406;2023-02-28T08:51:28;101123.53;;;5.13;nan
6349;BME280;3207;42.648;23.406;2023-02-28T08:53:57;101109.91;;;5.33;nan
6349;BME280;3207;42.648;23.406;2023-02-28T08:56:25;101109.59;;;5.42;nan
6349;BME280;3207;42.648;23.406;2023-02-28T08:58:55;101114.56;;;5.49;nan
6349;BME280;3207;42.648;23.406;2023-02-28T09:01:24;101115.00;;;5.36;nan
6349;BME280;3207;42.648;23.406;2023-02-28T09:03:52;101114.03;;;5.40;nan
6349;BME280;3207;42.648;23.406;2023-02-28T09:06:21;101123.91;;;5.29;nan
6349;BME280;3207;42.648;23.406;2023-02-28T09:08:48;101098.91;;;5.26;nan
6349;BME280;3207;42.648;23.406;2023-02-28T09:11:15;101124.22;;;5.44;nan
6349;BME280;3207;42.648;23.406;2023-02-28T09:13:44;101121.34;;;5.52;nan
6349;BME280;3207;42.648;23.406;2023-02-28T09:16:14;101112.50;;;5.59;nan
6349;BME280;3207;42.648;23.406;2023-02-28T09:18:42;101115.03;;;5.61;nan
6349;BME280;3207;42.648;23.406;2023-02-28T09:21:11;101113.81;;;5.71;nan
6349;BME280;3207;42.648;23.406;2023-02-28T09:23:39;101116.53;;;5.93;nan
6349;BME280;3207;42.648;23.406;2023-02-28T09:26:06;101118.56;;;6.31;nan
6349;BME280;3207;42.648;23.406;2023-02-28T09:28:33;101122.31;;;6.91;nan
6349;BME280;3207;42.648;23.406;2023-02-28T09:31:00;101115.59;;;7.07;nan
6349;BME280;3207;42.648;23.406;2023-02-28T09:33:29;101124.59;;;7.20;nan
6349;BME280;3207;42.648;23.406;2023-02-28T09:36:00;101119.94;;;7.28;nan
6349;BME280;3207;42.648;23.406;2023-02-28T09:38:28;101122.25;;;7.34;nan
6349;BME280;3207;42.648;23.406;2023-02-28T09:40:56;101110.38;;;7.29;nan
6349;BME280;3207;42.648;23.406;2023-02-28T09:43:27;101124.19;;;7.09;nan
6349;BME280;3207;42.648;23.406;2023-02-28T09:45:59;101118.91;;;6.89;nan
6349;BME280;3207;42.648;23.406;2023-02-28T09:48:32;101119.59;;;6.72;nan
6349;BME280;3207;42.648;23.406;2023-02-28T09:51:04;101133.25;;;6.55;nan
6349;BME280;3207;42.648;23.406;2023-02-28T09:53:33;101131.53;;;6.54;nan
6349;BME280;3207;42.648;23.406;2023-02-28T09:56:04;101128.38;;;6.46;nan
6349;BME280;3207;42.648;23.406;2023-02-28T09:58:37;101133.19;;;6.34;nan
6349;BME280;3207;42.648;23.406;2023-02-28T10:01:09;101097.13;;;6.03;nan
6349;BME280;3207;42.648;23.406;2023-02-28T10:03:43;101134.34;;;6.25;nan
6349;BME280;3207;42.648;23.406;2023-02-28T10:06:15;101062.81;;;5.95;nan
6349;BME280;3207;42.648;23.406;2023-02-28T10:08:53;101124.50;;;6.35;nan
6349;BME280;3207;42.648;23.406;2023-02-28T10:11:23;101133.28;;;6.54;nan
6349;BME280;3207;42.648;23.406;2023-02-28T10:13:54;101114.28;;;6.75;nan
6349;BME280;3207;42.648;23.406;2023-02-28T10:16:31;101121.50;;;6.89;nan
6349;BME280;3207;42.648;23.406;2023-02-28T10:19:03;101115.72;;;6.82;nan
6349;BME280;3207;42.648;23.406;2023-02-28T10:21:36;101119.34;;;7.00;nan
6349;BME280;3207;42.648;23.406;2023-02-28T10:24:14;101115.13;;;6.97;nan
6349;BME280;3207;42.648;23.406;2023-02-28T10:26:47;101106.91;;;7.08;nan
6349;BME280;3207;42.648;23.406;2023-02-28T10:29:15;101107.22;;;7.21;nan
6349;BME280;3207;42.648;23.406;2023-02-28T10:31:42;101112.75;;;7.33;nan
6349;BME280;3207;42.648;23.406;2023-02-28T10:34:12;101106.94;;;7.49;nan
6349;BME280;3207;42.648;23.406;2023-02-28T10:36:39;101113.94;;;7.47;nan
6349;BME280;3207;42.648;23.406;2023-02-28T10:39:34;101112.53;;;7.60;nan
6349;BME280;3207;42.648;23.406;2023-02-28T10:42:01;101107.50;;;7.55;nan
6349;BME280;3207;42.648;23.406;2023-02-28T10:44:28;101108.22;;;7.59;nan
6349;BME280;3207;42.648;23.406;2023-02-28T10:46:56;101110.16;;;7.54;nan
6349;BME280;3207;42.648;23.406;2023-02-28T10:49:26;101097.31;;;7.51;nan
6349;BME280;3207;42.648;23.406;2023-02-28T10:51:56;101099.00;;;7.72;nan
6349;BME280;3207;42.648;23.406;2023-02-28T10:54:29;101100.69;;;7.73;nan
6349;BME280;3207;42.648;23.406;2023-02-28T10:57:11;101088.91;;;7.64;nan
6349;BME280;3207;42.648;23.406;2023-02-28T10:59:41;101093.34;;;7.62;nan
6349;BME280;3207;42.648;23.406;2023-02-28T11:02:31;101085.84;;;7.14;nan
6349;BME280;3207;42.648;23.406;2023-02-28T11:05:00;101080.53;;;7.17;nan
6349;BME280;3207;42.648;23.406;2023-02-28T11:07:27;101089.81;;;7.23;nan
6349;BME280;3207;42.648;23.406;2023-02-28T11:09:55;101092.47;;;7.21;nan
6349;BME280;3207;42.648;23.406;2023-02-28T11:12:25;101083.63;;;7.25;nan
6349;BME280;3207;42.648;23.406;2023-02-28T11:14:55;101077.91;;;7.58;nan
6349;BME280;3207;42.648;23.406;2023-02-28T11:17:24;101078.47;;;7.85;nan
6349;BME280;3207;42.648;23.406;2023-02-28T11:19:54;101067.31;;;8.20;nan
6349;BME280;3207;42.648;23.406;2023-02-28T11:22:25;101072.78;;;8.89;nan
6349;BME280;3207;42.648;23.406;2023-02-28T11:24:57;101065.28;;;9.85;nan
6349;BME280;3207;42.648;23.406;2023-02-28T11:27:26;101064.28;;;10.97;nan
6349;BME280;3207;42.648;23.406;2023-02-28T11:30:23;101051.41;;;11.38;nan
6349;BME280;3207;42.648;23.406;2023-02-28T11:32:51;101068.13;;;11.22;nan
6349;BME280;3207;42.648;23.406;2023-02-28T11:35:23;101063.66;;;10.78;nan
6349;BME280;3207;42.648;23.406;2023-02-28T11:37:52;101071.63;;;10.12;nan
6349;BME280;3207;42.648;23.406;2023-02-28T11:40:24;101052.03;;;9.88;nan
6349;BME280;3207;42.648;23.406;2023-02-28T11:42:58;101065.66;;;9.77;nan
6349;BME280;3207;42.648;23.406;2023-02-28T11:45:44;101061.47;;;9.58;nan
6349;BME280;3207;42.648;23.406;2023-02-28T11:48:19;101064.41;;;9.34;nan
6349;BME280;3207;42.648;23.406;2023-02-28T11:50:57;101062.13;;;9.11;nan
6349;BME280;3207;42.648;23.406;2023-02-28T11:53:44;101053.81;;;8.86;nan
6349;BME280;3207;42.648;23.406;2023-02-28T11:56:20;101038.25;;;8.84;nan
6349;BME280;3207;42.648;23.406;2023-02-28T11:58:58;101041.16;;;8.78;nan
6349;BME280;3207;42.648;23.406;2023-02-28T12:01:41;101051.91;;;8.53;nan
6349;BME280;3207;42.648;23.406;2023-02-28T12:04:24;101046.50;;;8.39;nan
6349;BME280;3207;42.648;23.406;2023-02-28T12:06:57;101044.09;;;8.16;nan
6349;BME280;3207;42.648;23.406;2023-02-28T12:09:38;101027.06;;;7.90;nan
6349;BME280;3207;42.648;23.406;2023-02-28T12:12:19;101036.75;;;7.86;nan
6349;BME280;3207;42.648;23.406;2023-02-28T12:15:05;101022.31;;;7.79;nan
6349;BME280;3207;42.648;23.406;2023-02-28T12:17:51;101029.22;;;7.80;nan
6349;BME280;3207;42.648;23.406;2023-02-28T12:20:30;101041.66;;;7.73;nan
6349;BME280;3207;42.648;23.406;2023-02-28T12:23:22;101033.53;;;7.81;nan
6349;BME280;3207;42.648;23.406;2023-02-28T12:26:05;101035.84;;;7.87;nan
6349;BME280;3207;42.648;23.406;2023-02-28T12:28:37;101029.94;;;8.02;nan
6349;BME280;3207;42.648;23.406;2023-02-28T12:31:09;101012.63;;;8.01;nan
6349;BME280;3207;42.648;23.406;2023-02-28T12:33:42;101019.38;;;8.05;nan
6349;BME280;3207;42.648;23.406;2023-02-28T12:36:13;101028.81;;;7.89;nan
6349;BME280;3207;42.648;23.406;2023-02-28T12:38:46;101005.72;;;8.00;nan
6349;BME280;3207;42.648;23.406;2023-02-28T12:41:17;101010.09;;;8.00;nan
6349;BME280;3207;42.648;23.406;2023-02-28T12:43:48;101014.09;;;7.88;nan
6349;BME280;3207;42.648;23.406;2023-02-28T12:46:21;101009.91;;;8.04;nan
6349;BME280;3207;42.648;23.406;2023-02-28T12:48:53;101003.34;;;7.96;nan
6349;BME280;3207;42.648;23.406;2023-02-28T12:51:23;101008.91;;;7.88;nan
6349;BME280;3207;42.648;23.406;2023-02-28T12:53:58;101014.16;;;7.87;nan
6349;BME280;3207;42.648;23.406;2023-02-28T12:56:36;100991.28;;;7.56;nan
6349;BME280;3207;42.648;23.406;2023-02-28T12:59:13;101010.47;;;7.53;nan
6349;BME280;3207;42.648;23.406;2023-02-28T13:01:51;101010.22;;;7.59;nan
6349;BME280;3207;42.648;23.406;2023-02-28T13:04:34;101008.47;;;7.79;nan
6349;BME280;3207;42.648;23.406;2023-02-28T13:10:16;100980.53;;;8.01;nan
6349;BME280;3207;42.648;23.406;2023-02-28T13:12:49;101004.19;;;8.34;nan
6349;BME280;3207;42.648;23.406;2023-02-28T13:15:19;100999.91;;;8.33;nan
6349;BME280;3207;42.648;23.406;2023-02-28T13:17:53;101000.91;;;8.29;nan
6349;BME280;3207;42.648;23.406;2023-02-28T13:20:23;100997.69;;;8.24;nan
6349;BME280;3207;42.648;23.406;2023-02-28T13:22:53;100993.69;;;8.17;nan
6349;BME280;3207;42.648;23.406;2023-02-28T13:25:50;100991.22;;;7.95;nan
6349;BME280;3207;42.648;23.406;2023-02-28T13:32:26;100984.25;;;7.95;nan
6349;BME280;3207;42.648;23.406;2023-02-28T13:38:12;100977.81;;;8.04;nan
6349;BME280;3207;42.648;23.406;2023-02-28T13:40:40;100987.09;;;8.09;nan
6349;BME280;3207;42.648;23.406;2023-02-28T13:43:08;100937.84;;;7.86;nan
6349;BME280;3207;42.648;23.406;2023-02-28T13:45:35;100980.25;;;8.07;nan
6349;BME280;3207;42.648;23.406;2023-02-28T13:48:16;100946.72;;;7.82;nan
6349;BME280;3207;42.648;23.406;2023-02-28T13:50:44;100960.28;;;7.70;nan
6349;BME280;3207;42.648;23.406;2023-02-28T13:53:42;100982.38;;;7.99;nan
6349;BME280;3207;42.648;23.406;2023-02-28T13:56:27;100984.19;;;7.78;nan
6349;BME280;3207;42.648;23.406;2023-02-28T13:59:03;100982.38;;;7.80;nan
6349;BME280;3207;42.648;23.406;2023-02-28T14:01:44;100970.88;;;7.84;nan
6349;BME280;3207;42.648;23.406;2023-02-28T14:04:46;100961.44;;;7.83;nan